Sparks, Nevada
Current Conditions -  °F | °C
As of 5:55 PM on Monday 20 Oct 2014 (Local Time) from KRNO Reporting Station
Few Clouds Few Clouds  
Wind Chill: 64°   Ceiling: Unl
Heat Index: 64°   Visibility: 10mi
Dew Point: 33°   Wind: 17mph
Humidity: 31%   Direction: 220°SW
Pressure: 29.86"   Gusts: 28mph
Location:  39.54°N, 119.74°W
Report Text: KRNO 210055Z 22015G24KT 10SM FEW070 FEW180 18/01 A2986 RMK AO2 SLP083 ACSL DSNT NE T01780006
Loading
Personal Weather Stations






























Interactive Weather Map
Tropical Storm Tracking
New forecast layout! Learn more

10-Day Weather Forecast

Advertisements
Track Severe Weather on mobile